Conway, Arkansas
Current Conditions -  °F | °C
As of 7:58 PM on Friday 24 Oct 2014 (Local Time) from KLRF Reporting Station
Clear Clear  
Wind Chill: 60°   Ceiling: Unl
Heat Index: 60°   Visibility: 10mi
Dew Point: 57°   Wind: 5mph
Humidity: 91%   Direction: 180°S
Pressure: 30.09"   Gusts: NA
Location:  35.09°N, 92.44°W
Report Text: KLRF 250058Z AUTO 18004KT 10SM CLR 15/14 A3009 RMK AO2 SLP192 T01540139
Loading
Personal Weather Stations






























Interactive Weather Map New forecast layout! Learn more

10-Day Weather Forecast

Advertisements
Track Severe Weather on mobile